Time;durP1;ratioP1;P1;durP2;ratioP2;P2;SDS_P1;SDS_P2;PMS_P1;PMS_P2;Temp;Humidity;BMP_temperature;BMP_pressure;BME280_temperature;BME280_humidity;BME280_pressure;Samples;Min_cycle;Max_cycle;Signal;HPM_P1;HPM_P2
2023/07/09 00:00:47;;;;;;;4.47;3.38;;;;;;;19.27;61.18;95304.97;5114196;28;20206;-70
2023/07/09 00:03:15;;;;;;;4.32;2.92;;;;;;;19.23;61.03;95309.78;5115845;28;20184;-70
2023/07/09 00:05:42;;;;;;;3.58;3.00;;;;;;;19.18;61.61;95308.19;5115745;28;20191;-70
2023/07/09 00:08:26;;;;;;;4.55;3.20;;;;;;;19.17;61.02;95300.19;5115594;28;20192;-70
2023/07/09 00:10:53;;;;;;;3.72;3.15;;;;;;;19.13;60.92;95303.00;5115616;28;20252;-70
2023/07/09 00:13:25;;;;;;;4.47;3.00;;;;;;;19.11;59.50;95297.03;5114877;28;20191;-70
2023/07/09 00:15:52;;;;;;;3.95;3.05;;;;;;;19.19;58.17;95301.41;5115198;28;20276;-70
2023/07/09 00:18:19;;;;;;;3.55;2.88;;;;;;;19.29;56.73;95291.41;5115687;28;20211;-70
2023/07/09 00:20:47;;;;;;;3.80;3.25;;;;;;;19.36;55.65;95296.19;5115502;28;20195;-70
2023/07/09 00:23:16;;;;;;;3.75;2.80;;;;;;;19.42;55.59;95297.34;5115222;28;20199;-70
2023/07/09 00:25:44;;;;;;;3.83;2.92;;;;;;;19.49;54.66;95295.31;5115519;28;20184;-70
2023/07/09 00:28:15;;;;;;;2.80;2.55;;;;;;;19.52;54.25;95293.72;5115462;28;20330;-70
2023/07/09 00:30:48;;;;;;;3.00;2.70;;;;;;;19.56;53.96;95297.28;5114542;28;20668;-70
2023/07/09 00:33:18;;;;;;;4.88;3.25;;;;;;;19.60;53.23;95294.47;5118703;28;20263;-70
2023/07/09 00:35:48;;;;;;;3.40;3.20;;;;;;;19.62;53.19;95300.47;5118608;28;20206;-70
2023/07/09 00:38:21;;;;;;;6.47;2.88;;;;;;;19.65;52.70;95292.09;5119489;28;20188;-70
2023/07/09 00:41:03;;;;;;;4.03;3.00;;;;;;;19.65;52.40;95291.31;5119415;28;20202;-70
2023/07/09 00:43:32;;;;;;;2.88;2.67;;;;;;;19.65;52.46;95282.91;5118828;28;20199;-70
2023/07/09 00:46:47;;;;;;;3.08;2.65;;;;;;;19.66;52.63;95287.28;5119368;28;20183;-70
2023/07/09 00:49:26;;;;;;;4.20;3.20;;;;;;;19.65;52.27;95277.31;5118453;28;20531;-70
2023/07/09 00:51:53;;;;;;;3.72;2.78;;;;;;;19.66;52.55;95276.91;5118960;28;20195;-70
2023/07/09 00:54:30;;;;;;;3.75;2.90;;;;;;;19.66;52.24;95274.09;5118359;28;20204;-70
2023/07/09 00:57:01;;;;;;;3.85;2.92;;;;;;;19.65;51.80;95271.72;5118106;28;20211;-70
2023/07/09 00:59:31;;;;;;;3.78;2.67;;;;;;;19.65;52.21;95268.91;5119124;28;20210;-70
2023/07/09 01:02:01;;;;;;;3.35;3.05;;;;;;;19.66;52.13;95274.09;5119070;28;20199;-70
2023/07/09 01:04:30;;;;;;;3.75;3.35;;;;;;;19.67;51.94;95274.88;5119147;28;20215;-70
2023/07/09 01:06:58;;;;;;;3.63;3.20;;;;;;;19.66;51.87;95271.31;5118929;28;20241;-70
2023/07/09 01:09:26;;;;;;;3.38;3.08;;;;;;;19.66;51.87;95273.31;5118927;28;20257;-70
2023/07/09 01:11:56;;;;;;;3.42;3.13;;;;;;;19.65;52.17;95269.72;5118719;28;20191;-69
2023/07/09 01:14:26;;;;;;;4.63;3.25;;;;;;;19.64;52.29;95268.09;5118654;28;20195;-70
2023/07/09 01:16:58;;;;;;;4.15;3.35;;;;;;;19.62;52.12;95264.94;5100346;28;20219;-70
2023/07/09 01:19:28;;;;;;;3.47;3.17;;;;;;;19.63;52.22;95260.13;5118962;28;20188;-70
2023/07/09 01:22:01;;;;;;;4.10;3.00;;;;;;;19.62;52.23;95262.13;5118531;28;20184;-70
2023/07/09 01:24:57;;;;;;;4.47;3.17;;;;;;;19.62;52.42;95269.69;5117786;28;20209;-70
2023/07/09 01:27:29;;;;;;;6.97;3.00;;;;;;;19.59;54.01;95265.72;5118459;28;20248;-70
2023/07/09 01:29:57;;;;;;;6.75;3.58;;;;;;;19.57;53.48;95256.94;5077840;28;20235;-70
2023/07/09 01:32:26;;;;;;;3.85;2.95;;;;;;;19.56;54.79;95260.91;5077095;28;20212;-70
2023/07/09 01:35:04;;;;;;;3.38;3.17;;;;;;;19.47;55.84;95257.78;5078089;28;20216;-70
2023/07/09 01:37:39;;;;;;;4.28;2.92;;;;;;;19.39;56.79;95258.97;5076686;28;20212;-70
2023/07/09 01:40:12;;;;;;;3.58;3.28;;;;;;;19.31;57.80;95266.59;5077689;28;20185;-70
2023/07/09 01:42:40;;;;;;;5.28;3.15;;;;;;;19.26;58.14;95258.66;5076435;28;20272;-71
2023/07/09 01:45:12;;;;;;;3.97;3.13;;;;;;;19.23;56.88;95259.44;5077779;28;20205;-70
2023/07/09 01:47:43;;;;;;;3.38;3.05;;;;;;;19.22;55.77;95274.63;5076360;28;20201;-70
2023/07/09 01:50:12;;;;;;;4.22;3.15;;;;;;;19.26;55.01;95269.03;5077094;28;20215;-70
2023/07/09 01:52:49;;;;;;;4.05;3.22;;;;;;;19.28;53.98;95267.44;5077576;28;20185;-70
2023/07/09 01:55:18;;;;;;;3.92;3.00;;;;;;;19.34;53.30;95270.59;5077113;28;20242;-70
2023/07/09 01:57:46;;;;;;;4.63;3.08;;;;;;;19.36;52.94;95263.41;5077471;28;20216;-70
2023/07/09 02:00:18;;;;;;;3.40;2.90;;;;;;;19.37;52.67;95273.38;5076525;28;20214;-70
2023/07/09 02:02:48;;;;;;;3.75;3.13;;;;;;;19.40;52.69;95278.19;5077154;28;20196;-70
2023/07/09 02:05:17;;;;;;;3.30;2.70;;;;;;;19.43;52.45;95270.97;5076186;28;20185;-70
2023/07/09 02:07:46;;;;;;;3.00;2.80;;;;;;;19.43;52.46;95273.78;5076643;28;20581;-70
2023/07/09 02:10:15;;;;;;;3.40;3.10;;;;;;;19.44;52.33;95275.38;5076373;28;20520;-70
2023/07/09 02:12:44;;;;;;;3.15;2.85;;;;;;;19.46;52.04;95275.75;5076084;28;20254;-70
2023/07/09 02:15:12;;;;;;;3.17;2.88;;;;;;;19.47;52.38;95269.75;5076748;28;20234;-70
2023/07/09 02:17:40;;;;;;;3.25;2.90;;;;;;;19.47;52.33;95272.56;5076861;28;20212;-70
2023/07/09 02:20:11;;;;;;;7.22;3.30;;;;;;;19.49;52.36;95272.94;5077117;28;20184;-70
2023/07/09 02:22:40;;;;;;;5.70;3.00;;;;;;;19.49;52.13;95269.34;5072955;28;20212;-70
2023/07/09 02:25:15;;;;;;;3.22;2.90;;;;;;;19.49;52.46;95275.72;5076544;28;20193;-70
2023/07/09 02:27:46;;;;;;;3.50;3.20;;;;;;;19.48;53.46;95279.75;5080200;28;20192;-70
2023/07/09 02:30:14;;;;;;;3.75;2.97;;;;;;;19.44;53.63;95281.75;5117248;28;20180;-70
2023/07/09 02:32:42;;;;;;;3.95;3.03;;;;;;;19.33;56.11;95286.59;5117200;28;20183;-70
2023/07/09 02:35:11;;;;;;;5.43;3.30;;;;;;;19.19;57.09;95283.84;5116219;28;20725;-70
2023/07/09 02:37:40;;;;;;;3.42;3.00;;;;;;;19.11;57.49;95293.44;5117306;28;20235;-70
2023/07/09 02:40:14;;;;;;;7.65;3.28;;;;;;;18.97;58.18;95297.84;5116007;28;20499;-70
2023/07/09 02:42:42;;;;;;;3.67;3.25;;;;;;;18.88;58.54;95296.66;5115797;28;20198;-70
2023/07/09 02:45:11;;;;;;;4.80;3.83;;;;;;;18.77;58.84;95296.66;5116199;28;20203;-70
2023/07/09 02:47:39;;;;;;;5.85;3.83;;;;;;;18.69;59.10;95307.03;5116123;28;20203;-70
2023/07/09 02:50:09;;;;;;;5.50;3.97;;;;;;;18.63;59.38;95308.63;5116629;28;20236;-69
2023/07/09 02:52:41;;;;;;;5.63;4.00;;;;;;;18.58;60.11;95305.44;5116947;28;20188;-69
2023/07/09 02:55:16;;;;;;;6.57;4.80;;;;;;;18.54;59.57;95308.22;5115212;28;20195;-70
2023/07/09 02:57:44;;;;;;;4.85;4.07;;;;;;;18.51;60.39;95312.59;5116095;28;20239;-70
2023/07/09 03:00:13;;;;;;;6.00;4.35;;;;;;;18.44;60.32;95315.41;5116821;28;20199;-69
2023/07/09 03:02:43;;;;;;;6.65;4.60;;;;;;;18.39;60.86;95326.19;5115717;28;20284;-70
2023/07/09 03:05:13;;;;;;;6.68;4.65;;;;;;;18.36;60.90;95319.38;5115505;28;20258;-69
2023/07/09 03:07:42;;;;;;;5.18;4.25;;;;;;;18.35;61.34;95328.16;5116292;28;20199;-69
2023/07/09 03:10:10;;;;;;;4.70;4.28;;;;;;;18.32;61.74;95323.38;5115702;28;20199;-70
2023/07/09 03:12:38;;;;;;;5.10;4.32;;;;;;;18.27;62.68;95316.19;5112654;28;20204;-70
2023/07/09 03:15:12;;;;;;;7.03;4.53;;;;;;;18.26;62.78;95322.94;5115633;28;20208;-69
2023/07/09 03:17:42;;;;;;;4.43;3.85;;;;;;;18.21;63.07;95326.16;5115711;28;20223;-69
2023/07/09 03:20:13;;;;;;;5.60;3.65;;;;;;;18.17;62.69;95326.13;5116466;28;20216;-69
2023/07/09 03:22:42;;;;;;;4.40;3.95;;;;;;;18.20;62.74;95330.13;5116273;28;20200;-70
2023/07/09 03:25:11;;;;;;;3.78;3.38;;;;;;;18.23;62.70;95330.16;5116334;28;20188;-69
2023/07/09 03:27:45;;;;;;;4.05;3.30;;;;;;;18.24;61.34;95323.38;5114739;28;20218;-69
2023/07/09 03:30:13;;;;;;;4.15;3.10;;;;;;;18.34;60.15;95327.38;5115092;28;20206;-69
2023/07/09 03:32:45;;;;;;;4.32;3.80;;;;;;;18.42;60.50;95325.38;5115852;28;20207;-69
2023/07/09 03:35:13;;;;;;;4.10;3.05;;;;;;;18.45;60.02;95332.97;5114859;28;20246;-70
2023/07/09 03:37:41;;;;;;;4.40;3.30;;;;;;;18.53;59.39;95328.97;5115471;28;20219;-70
2023/07/09 03:40:11;;;;;;;3.97;3.55;;;;;;;18.56;60.77;95332.97;5115307;28;20575;-69
2023/07/09 03:42:45;;;;;;;5.28;3.55;;;;;;;18.47;61.96;95333.34;5116014;28;20206;-69
2023/07/09 03:45:22;;;;;;;4.05;3.40;;;;;;;18.39;62.31;95324.19;5115283;28;20196;-70
2023/07/09 03:47:50;;;;;;;5.18;3.60;;;;;;;18.37;62.08;95334.13;5115935;28;20187;-70
2023/07/09 03:50:18;;;;;;;6.10;3.78;;;;;;;18.33;62.08;95333.34;5114821;28;20260;-70
2023/07/09 03:52:46;;;;;;;4.40;3.95;;;;;;;18.27;63.01;95333.75;5114561;28;20195;-70
2023/07/09 03:55:14;;;;;;;5.82;4.00;;;;;;;18.20;63.00;95339.31;5115769;28;20214;-70
2023/07/09 03:57:46;;;;;;;7.28;4.10;;;;;;;18.20;63.07;95338.50;5116029;28;20276;-69
2023/07/09 04:00:15;;;;;;;4.78;3.83;;;;;;;18.17;62.75;95336.50;5114803;28;20196;-69
2023/07/09 04:02:44;;;;;;;6.72;4.25;;;;;;;18.12;63.73;95342.47;5115319;28;20280;-70
2023/07/09 04:05:12;;;;;;;4.05;3.70;;;;;;;18.09;64.04;95340.50;5115235;28;20184;-70
2023/07/09 04:07:40;;;;;;;4.85;3.90;;;;;;;18.10;65.08;95342.88;5114665;28;20192;-70
2023/07/09 04:10:09;;;;;;;6.45;4.10;;;;;;;18.12;65.77;95342.47;5114831;28;20187;-69
2023/07/09 04:12:37;;;;;;;6.47;4.43;;;;;;;18.11;65.62;95349.25;5115622;28;20191;-70
2023/07/09 04:15:08;;;;;;;4.68;4.18;;;;;;;18.13;65.43;95353.25;5114826;28;20216;-70
2023/07/09 04:17:35;;;;;;;5.88;4.35;;;;;;;18.17;63.97;95353.25;5114460;28;20662;-69
2023/07/09 04:20:07;;;;;;;5.13;3.67;;;;;;;18.28;62.99;95354.06;5115586;28;20184;-69
2023/07/09 04:22:35;;;;;;;5.95;3.45;;;;;;;18.39;61.03;95346.53;5115483;28;20196;-69
2023/07/09 04:25:05;;;;;;;4.82;3.90;;;;;;;18.49;60.18;95359.69;5115141;28;20276;-69
2023/07/09 04:27:33;;;;;;;4.55;3.50;;;;;;;18.59;58.94;95354.50;5115339;28;20266;-69
2023/07/09 04:30:02;;;;;;;5.10;3.35;;;;;;;18.66;57.52;95348.94;5115519;28;20184;-70
2023/07/09 04:32:32;;;;;;;6.20;3.53;;;;;;;18.74;57.52;95356.97;5114513;28;20191;-69
2023/07/09 04:35:00;;;;;;;3.72;3.38;;;;;;;18.81;57.65;95361.75;5115084;28;20554;-69
2023/07/09 04:37:28;;;;;;;4.53;3.75;;;;;;;18.87;56.92;95365.72;5113256;28;20215;-69
2023/07/09 04:39:56;;;;;;;3.83;3.50;;;;;;;18.91;57.57;95369.31;5114262;28;20204;-69
2023/07/09 04:42:26;;;;;;;4.80;3.92;;;;;;;18.93;57.48;95369.72;5114617;28;20295;-69
2023/07/09 04:44:57;;;;;;;4.95;3.30;;;;;;;18.97;57.32;95364.94;5114935;28;20256;-69
2023/07/09 04:47:25;;;;;;;4.07;3.50;;;;;;;18.99;56.70;95364.53;5115534;28;20172;-69
2023/07/09 04:49:53;;;;;;;4.47;3.50;;;;;;;19.03;56.66;95362.53;5114007;28;20207;-69
2023/07/09 04:52:22;;;;;;;3.53;3.17;;;;;;;19.06;56.63;95360.94;5115062;28;20345;-69
2023/07/09 04:54:50;;;;;;;4.63;4.00;;;;;;;19.09;56.23;95362.91;5114204;28;20203;-69
2023/07/09 04:57:18;;;;;;;4.18;3.78;;;;;;;19.12;55.81;95362.13;5115206;28;20259;-69
2023/07/09 04:59:46;;;;;;;4.28;3.70;;;;;;;19.15;55.88;95364.91;5114960;28;20196;-69
2023/07/09 05:02:14;;;;;;;5.72;3.97;;;;;;;19.18;55.86;95364.13;5114942;28;20261;-69
2023/07/09 05:04:42;;;;;;;5.35;4.03;;;;;;;19.19;55.41;95371.31;5115148;28;20196;-69
2023/07/09 05:07:15;;;;;;;4.25;3.85;;;;;;;19.20;55.72;95372.88;5114780;28;20187;-69
2023/07/09 05:09:46;;;;;;;5.55;3.67;;;;;;;19.23;55.86;95376.88;5114809;28;20191;-69
2023/07/09 05:12:14;;;;;;;6.25;4.03;;;;;;;19.22;55.64;95378.88;5114780;28;20212;-70
2023/07/09 05:14:42;;;;;;;4.28;3.75;;;;;;;19.23;55.53;95380.47;5114088;28;20192;-69
2023/07/09 05:17:12;;;;;;;4.03;3.63;;;;;;;19.26;55.54;95381.69;5114468;28;20615;-69
2023/07/09 05:19:43;;;;;;;5.30;3.78;;;;;;;19.27;55.78;95380.47;5118768;28;20217;-69
2023/07/09 05:22:15;;;;;;;4.60;4.20;;;;;;;19.28;55.77;95382.09;5117723;28;20527;-69
2023/07/09 05:24:43;;;;;;;4.43;3.78;;;;;;;19.31;55.87;95384.06;5118532;28;20264;-69
2023/07/09 05:27:10;;;;;;;4.13;3.50;;;;;;;19.34;56.27;95385.25;5118357;28;20197;-69
2023/07/09 05:29:38;;;;;;;5.88;4.70;;;;;;;19.36;56.02;95378.06;5118506;28;20235;-69
2023/07/09 05:32:07;;;;;;;5.97;4.20;;;;;;;19.41;56.16;95386.03;5117562;28;20199;-69
2023/07/09 05:34:35;;;;;;;4.78;4.28;;;;;;;19.46;56.22;95385.66;5118422;28;20245;-69
2023/07/09 05:37:03;;;;;;;4.22;3.83;;;;;;;19.52;55.01;95386.03;5118390;28;20190;-69
2023/07/09 05:39:33;;;;;;;6.45;3.97;;;;;;;19.55;55.24;95376.81;5118556;28;20298;-69
2023/07/09 05:42:01;;;;;;;5.38;4.18;;;;;;;19.57;55.60;95379.22;5117355;28;20192;-70
2023/07/09 05:44:29;;;;;;;4.32;3.58;;;;;;;19.59;55.62;95377.63;5118293;28;20192;-69
2023/07/09 05:46:59;;;;;;;3.85;3.45;;;;;;;19.58;55.79;95381.63;5117162;28;20257;-69
2023/07/09 05:49:28;;;;;;;4.45;4.03;;;;;;;19.55;55.51;95382.44;5117895;28;20184;-69
2023/07/09 05:51:56;;;;;;;4.50;3.58;;;;;;;19.52;55.50;95383.22;5116886;28;20628;-69
2023/07/09 05:54:26;;;;;;;5.03;3.92;;;;;;;19.53;55.84;95379.22;5117738;28;20596;-69
2023/07/09 05:56:55;;;;;;;4.82;4.40;;;;;;;19.57;56.60;95374.44;5118005;28;20187;-69
2023/07/09 05:59:24;;;;;;;5.38;3.60;;;;;;;19.60;56.14;95379.19;5117619;28;20238;-69
2023/07/09 06:01:52;;;;;;;4.15;3.75;;;;;;;19.61;56.07;95386.41;5117578;28;20448;-69
2023/07/09 06:04:19;;;;;;;4.72;3.67;;;;;;;19.63;55.59;95388.81;5099742;28;20261;-69
2023/07/09 06:06:48;;;;;;;4.35;3.90;;;;;;;19.66;55.80;95393.63;5117407;28;20623;-69
2023/07/09 06:09:18;;;;;;;4.00;3.70;;;;;;;19.68;55.69;95382.81;5117751;28;20561;-69
2023/07/09 06:11:46;;;;;;;4.93;3.97;;;;;;;19.71;55.89;95382.78;5117644;28;20192;-69
2023/07/09 06:14:17;;;;;;;3.92;3.58;;;;;;;19.75;55.60;95376.41;5117445;28;20188;-69
2023/07/09 06:16:45;;;;;;;4.00;3.63;;;;;;;19.76;56.16;95376.00;5117275;28;20180;-69
2023/07/09 06:19:13;;;;;;;4.30;3.90;;;;;;;19.78;56.01;95367.19;5116755;28;20211;-69
2023/07/09 06:21:41;;;;;;;5.82;4.68;;;;;;;19.79;55.76;95361.22;5117501;28;20192;-69
2023/07/09 06:24:10;;;;;;;6.00;4.22;;;;;;;19.82;55.92;95368.75;5117584;28;20207;-69
2023/07/09 06:26:38;;;;;;;4.10;3.70;;;;;;;19.87;55.89;95364.78;5114004;28;20207;-69
2023/07/09 06:29:06;;;;;;;4.15;3.75;;;;;;;19.87;55.36;95368.38;5116171;28;20231;-69
2023/07/09 06:31:40;;;;;;;4.32;3.92;;;;;;;19.88;55.30;95367.16;5116501;28;20199;-69
2023/07/09 06:34:09;;;;;;;4.20;3.70;;;;;;;19.92;55.45;95365.13;5116407;28;20498;-69
2023/07/09 06:36:37;;;;;;;3.67;3.38;;;;;;;19.94;55.71;95368.34;5116392;28;20195;-69
2023/07/09 06:39:08;;;;;;;4.97;3.65;;;;;;;19.99;56.52;95364.31;5116139;28;20528;-69
2023/07/09 06:41:38;;;;;;;3.83;3.42;;;;;;;20.02;56.56;95362.72;5116404;28;20552;-70
2023/07/09 06:44:07;;;;;;;4.22;3.80;;;;;;;20.05;55.94;95354.28;5116782;28;20192;-69
2023/07/09 06:46:41;;;;;;;4.07;3.70;;;;;;;20.08;55.94;95355.47;5116088;28;20203;-69
2023/07/09 06:49:09;;;;;;;4.20;3.63;;;;;;;20.11;55.29;95360.25;5115818;28;20191;-69
2023/07/09 06:51:40;;;;;;;4.30;3.72;;;;;;;20.13;55.73;95367.03;5116442;28;20590;-69
2023/07/09 06:54:08;;;;;;;4.28;3.60;;;;;;;20.15;55.38;95361.84;5116009;28;20206;-69
2023/07/09 06:56:39;;;;;;;4.75;3.40;;;;;;;20.17;55.48;95365.03;5116895;28;20199;-69
2023/07/09 06:59:06;;;;;;;3.60;3.30;;;;;;;20.22;55.63;95360.19;5115961;28;20239;-69
2023/07/09 07:01:35;;;;;;;3.95;3.55;;;;;;;20.25;55.81;95353.78;5116660;28;20191;-69
2023/07/09 07:04:05;;;;;;;4.82;3.55;;;;;;;20.25;54.06;95357.38;5116989;28;20188;-69
2023/07/09 07:06:33;;;;;;;4.50;3.40;;;;;;;20.28;54.34;95355.75;5116303;28;20702;-69
2023/07/09 07:09:01;;;;;;;3.88;3.55;;;;;;;20.32;55.12;95364.94;5115708;28;20191;-69
2023/07/09 07:11:30;;;;;;;4.50;3.65;;;;;;;20.34;54.51;95354.13;5115978;28;20199;-69
2023/07/09 07:14:01;;;;;;;4.07;3.67;;;;;;;20.39;54.79;95356.50;5115674;28;20220;-69
2023/07/09 07:16:29;;;;;;;5.38;4.05;;;;;;;20.43;54.75;95360.06;5115325;28;20192;-69
2023/07/09 07:18:57;;;;;;;4.90;3.45;;;;;;;20.44;53.56;95354.06;5115270;28;20533;-69
2023/07/09 07:21:28;;;;;;;4.15;3.67;;;;;;;20.48;54.09;95356.03;5114159;28;20207;-69
2023/07/09 07:23:56;;;;;;;4.28;3.70;;;;;;;20.50;54.46;95351.66;5115416;28;20207;-69
2023/07/09 07:26:27;;;;;;;4.40;3.78;;;;;;;20.52;53.85;95354.06;5116333;28;20180;-69
2023/07/09 07:28:57;;;;;;;4.15;3.70;;;;;;;20.54;53.82;95348.81;5115825;28;20250;-69
2023/07/09 07:31:25;;;;;;;4.35;3.95;;;;;;;20.55;52.51;95351.22;5115935;28;20188;-69
2023/07/09 07:33:55;;;;;;;3.63;3.33;;;;;;;20.57;52.11;95348.81;5116375;28;20207;-69
2023/07/09 07:36:23;;;;;;;4.85;3.63;;;;;;;20.58;51.72;95346.78;5116187;28;20187;-70
2023/07/09 07:38:53;;;;;;;3.80;3.50;;;;;;;20.59;52.64;95338.00;5115700;28;20207;-69
2023/07/09 07:41:27;;;;;;;3.53;3.22;;;;;;;20.62;52.01;95334.34;5115833;28;20172;-69
2023/07/09 07:43:57;;;;;;;3.85;3.53;;;;;;;20.66;52.51;95332.34;5114893;28;20188;-69
2023/07/09 07:46:28;;;;;;;3.95;3.65;;;;;;;20.69;53.03;95341.91;5115193;28;20290;-69
2023/07/09 07:48:59;;;;;;;3.95;3.65;;;;;;;20.73;52.60;95341.88;5115918;28;20733;-69
2023/07/09 07:51:30;;;;;;;4.50;3.85;;;;;;;20.78;52.74;95339.44;5115060;28;20223;-70
2023/07/09 07:54:02;;;;;;;3.58;3.28;;;;;;;20.80;52.42;95339.81;5115561;28;20530;-69
2023/07/09 07:56:31;;;;;;;4.85;4.45;;;;;;;20.84;51.99;95337.81;5115903;28;20195;-70
2023/07/09 07:59:00;;;;;;;4.47;3.85;;;;;;;20.86;52.41;95342.97;5114775;28;20212;-70
2023/07/09 08:01:30;;;;;;;3.60;3.30;;;;;;;20.88;52.44;95335.75;5115832;28;20195;-69
2023/07/09 08:03:59;;;;;;;5.65;3.95;;;;;;;20.92;52.69;95332.94;5112122;28;20719;-69
2023/07/09 08:06:32;;;;;;;4.45;4.05;;;;;;;20.98;53.68;95330.47;5115023;28;20195;-69
2023/07/09 08:09:04;;;;;;;5.45;4.05;;;;;;;21.03;53.28;95330.03;5114725;28;20199;-70
2023/07/09 08:11:32;;;;;;;3.92;3.60;;;;;;;21.06;53.14;95329.16;5114947;28;20195;-69
2023/07/09 08:14:00;;;;;;;5.15;4.03;;;;;;;21.10;53.35;95329.97;5115587;28;20183;-69
2023/07/09 08:16:28;;;;;;;4.18;3.88;;;;;;;21.12;51.69;95325.50;5115597;28;20187;-70
2023/07/09 08:18:59;;;;;;;4.20;3.78;;;;;;;21.13;51.12;95327.13;5115151;28;20203;-69
2023/07/09 08:21:28;;;;;;;4.82;4.32;;;;;;;21.15;52.45;95324.69;5115183;28;20207;-70
2023/07/09 08:23:56;;;;;;;3.30;3.10;;;;;;;21.21;52.12;95327.06;5115660;28;20184;-70
2023/07/09 08:26:26;;;;;;;3.80;3.50;;;;;;;21.26;51.84;95323.78;5115596;28;20188;-70
2023/07/09 08:28:57;;;;;;;3.90;3.60;;;;;;;21.28;51.82;95322.16;5115275;28;20330;-70
2023/07/09 08:31:25;;;;;;;3.65;3.30;;;;;;;21.32;51.20;95316.53;5114951;28;20294;-70
2023/07/09 08:33:52;;;;;;;4.25;3.85;;;;;;;21.38;51.49;95326.09;5114300;28;20203;-70
2023/07/09 08:36:20;;;;;;;3.75;3.45;;;;;;;21.45;52.98;95314.78;5115206;28;20184;-70
2023/07/09 08:38:48;;;;;;;5.32;3.80;;;;;;;21.52;52.54;95313.91;5115317;28;20208;-72
2023/07/09 08:41:33;;;;;;;3.92;3.63;;;;;;;21.61;53.54;95325.47;5114906;28;20203;-70
2023/07/09 08:44:14;;;;;;;4.47;4.07;;;;;;;21.71;53.11;95320.91;5115059;28;20184;-69
2023/07/09 08:46:52;;;;;;;4.20;3.85;;;;;;;21.75;52.00;95316.88;5114485;28;20202;-69
2023/07/09 08:49:28;;;;;;;5.03;4.07;;;;;;;21.86;53.29;95311.91;5114461;28;20233;-69
2023/07/09 08:51:59;;;;;;;4.18;3.78;;;;;;;21.93;52.55;95321.44;5115180;28;20210;-69
2023/07/09 08:54:30;;;;;;;4.28;3.88;;;;;;;21.94;51.03;95314.63;5118296;28;20200;-70
2023/07/09 08:57:02;;;;;;;5.05;3.80;;;;;;;21.96;50.67;95317.78;5117931;28;20206;-70
2023/07/09 08:59:30;;;;;;;3.83;3.53;;;;;;;22.00;52.35;95318.53;5118375;28;20276;-70
2023/07/09 09:01:59;;;;;;;4.88;4.38;;;;;;;22.07;50.37;95322.06;5118335;28;20223;-70
2023/07/09 09:04:29;;;;;;;4.38;3.97;;;;;;;22.10;50.63;95318.41;5118142;28;20541;-70
2023/07/09 09:07:03;;;;;;;3.90;3.60;;;;;;;22.18;50.94;95321.16;5119113;28;20192;-70
2023/07/09 09:09:35;;;;;;;4.78;3.80;;;;;;;22.26;50.31;95323.44;5117898;28;20575;-70
2023/07/09 09:12:17;;;;;;;5.07;3.88;;;;;;;22.35;52.33;95318.09;5118226;28;20505;-70
2023/07/09 09:14:48;;;;;;;4.18;3.80;;;;;;;22.49;53.43;95319.09;5118718;28;20180;-69
2023/07/09 09:17:22;;;;;;;3.92;3.63;;;;;;;22.62;51.71;95314.47;5118051;28;20266;-69
2023/07/09 09:19:55;;;;;;;3.70;3.40;;;;;;;22.72;52.17;95315.53;5117829;28;20288;-69
2023/07/09 09:22:27;;;;;;;3.95;3.60;;;;;;;22.78;51.40;95314.63;5116387;28;20207;-69
2023/07/09 09:24:59;;;;;;;4.50;4.07;;;;;;;22.87;49.79;95321.72;5118629;28;20180;-69
2023/07/09 09:27:28;;;;;;;4.28;3.90;;;;;;;22.95;49.22;95326.03;5117663;28;20199;-69
2023/07/09 09:29:56;;;;;;;4.55;4.15;;;;;;;23.02;48.52;95320.28;5118520;28;20296;-67
2023/07/09 09:32:28;;;;;;;3.97;3.67;;;;;;;23.12;49.57;95316.50;5118565;28;20184;-67
2023/07/09 09:34:58;;;;;;;4.80;4.40;;;;;;;23.19;49.52;95322.00;5117447;28;20199;-67
2023/07/09 09:37:29;;;;;;;4.88;4.47;;;;;;;23.33;47.82;95314.53;5117038;28;20210;-67
2023/07/09 09:39:58;;;;;;;4.68;4.28;;;;;;;23.44;48.95;95315.13;5117910;28;20268;-67
2023/07/09 09:42:30;;;;;;;4.65;3.72;;;;;;;23.50;48.87;95310.59;5117139;28;20196;-68
2023/07/09 09:44:58;;;;;;;4.32;3.92;;;;;;;23.59;50.16;95307.19;5118198;28;20175;-67
2023/07/09 09:47:27;;;;;;;4.07;3.65;;;;;;;23.67;48.75;95303.81;5117818;28;20516;-67
2023/07/09 09:49:55;;;;;;;4.22;3.90;;;;;;;23.78;48.95;95303.59;5117323;28;20191;-68
2023/07/09 09:52:30;;;;;;;4.32;3.92;;;;;;;23.85;46.59;95303.47;5117848;27;20188;-68
2023/07/09 09:55:11;;;;;;;4.45;4.05;;;;;;;23.97;46.69;95302.81;5117163;28;20206;-68
2023/07/09 09:57:49;;;;;;;4.50;3.63;;;;;;;24.03;47.02;95291.81;5117997;28;20240;-68
2023/07/09 10:00:21;;;;;;;4.15;3.75;;;;;;;24.06;46.04;95298.63;5117026;28;20335;-71
2023/07/09 10:02:58;;;;;;;4.38;4.07;;;;;;;24.09;47.53;95298.53;5116964;28;20231;-69
2023/07/09 10:05:31;;;;;;;4.07;3.78;;;;;;;24.14;46.59;95291.59;5116884;28;20195;-69
2023/07/09 10:08:01;;;;;;;4.32;3.70;;;;;;;24.18;46.41;95292.31;5117224;28;20604;-68
2023/07/09 10:10:31;;;;;;;4.40;3.80;;;;;;;24.30;49.25;95299.31;5116947;28;20257;-68
2023/07/09 10:13:12;;;;;;;4.20;3.80;;;;;;;24.46;47.71;95282.44;5117772;28;20245;-68
2023/07/09 10:15:47;;;;;;;3.97;3.53;;;;;;;24.49;46.53;95281.56;5117703;28;20219;-68
2023/07/09 10:18:27;;;;;;;3.90;3.60;;;;;;;24.53;47.05;95285.09;5117362;28;20286;-68
2023/07/09 10:21:04;;;;;;;4.63;3.90;;;;;;;24.56;47.11;95283.44;5116544;28;20219;-70
2023/07/09 10:23:43;;;;;;;4.20;3.90;;;;;;;24.60;46.37;95276.47;5116921;28;20252;-68
2023/07/09 10:26:14;;;;;;;3.83;3.53;;;;;;;24.63;45.66;95278.41;5116604;28;20200;-68
2023/07/09 10:29:04;;;;;;;5.57;3.97;;;;;;;24.67;45.83;95278.34;5116084;28;20235;-68
2023/07/09 10:31:39;;;;;;;4.32;3.92;;;;;;;24.79;47.97;95280.44;5117360;28;20191;-68
2023/07/09 10:34:19;;;;;;;4.05;3.65;;;;;;;24.89;47.49;95278.59;5117312;28;20388;-68
2023/07/09 10:37:12;;;;;;;4.00;3.67;;;;;;;24.95;43.87;95271.19;5117280;28;20179;-67
2023/07/09 10:39:43;;;;;;;4.30;4.00;;;;;;;25.02;44.19;95267.38;5115898;28;20226;-67
2023/07/09 10:42:16;;;;;;;3.53;3.22;;;;;;;25.04;44.82;95267.75;5116859;28;20203;-67
2023/07/09 10:44:52;;;;;;;3.42;3.17;;;;;;;25.09;45.61;95267.19;5116068;28;20264;-68
2023/07/09 10:47:28;;;;;;;4.03;3.50;;;;;;;25.10;44.42;95266.78;5117038;28;20195;-67
2023/07/09 10:49:57;;;;;;;3.90;3.50;;;;;;;25.13;44.89;95259.47;5115994;28;20195;-68
2023/07/09 10:52:29;;;;;;;3.72;3.42;;;;;;;25.16;43.82;95261.38;5116746;28;20199;-67
2023/07/09 10:55:01;;;;;;;3.53;3.22;;;;;;;25.20;42.74;95268.53;5116819;28;20192;-67
2023/07/09 10:57:31;;;;;;;3.80;3.42;;;;;;;25.28;43.92;95265.53;5116061;28;20238;-68
2023/07/09 11:00:06;;;;;;;3.95;3.55;;;;;;;25.25;42.85;95272.84;5115874;28;20227;-67
2023/07/09 11:02:36;;;;;;;3.33;3.03;;;;;;;25.23;41.40;95268.88;5116728;28;20194;-68
2023/07/09 11:05:08;;;;;;;5.05;3.50;;;;;;;25.29;42.17;95267.91;5116163;28;20191;-67
2023/07/09 11:07:41;;;;;;;3.95;3.65;;;;;;;25.36;42.88;95259.25;5115797;28;20539;-67
2023/07/09 11:10:16;;;;;;;3.83;3.40;;;;;;;25.35;42.47;95262.53;5116430;28;20188;-67
2023/07/09 11:12:58;;;;;;;3.55;3.25;;;;;;;25.40;42.53;95267.63;5115548;28;20191;-67
2023/07/09 11:15:31;;;;;;;5.47;3.90;;;;;;;25.49;40.32;95264.97;5115277;28;20231;-67
2023/07/09 11:18:00;;;;;;;3.45;3.15;;;;;;;25.58;41.24;95265.09;5115366;28;20223;-67
2023/07/09 11:20:33;;;;;;;4.20;3.80;;;;;;;25.68;40.36;95272.47;5115411;28;20223;-67
2023/07/09 11:23:04;;;;;;;3.80;3.17;;;;;;;25.76;41.50;95277.91;5115396;28;20225;-67
2023/07/09 11:25:44;;;;;;;3.75;3.45;;;;;;;25.81;41.08;95266.09;5116088;28;20180;-67
2023/07/09 11:28:12;;;;;;;4.20;3.33;;;;;;;25.81;39.82;95264.06;5115444;28;20238;-68
2023/07/09 11:30:55;;;;;;;3.45;3.15;;;;;;;25.90;42.85;95252.13;5115283;28;20204;-67
2023/07/09 11:33:30;;;;;;;3.42;3.00;;;;;;;25.91;41.61;95253.69;5115343;28;20187;-67
2023/07/09 11:36:09;;;;;;;4.30;3.90;;;;;;;25.95;41.25;95254.38;5116234;28;20180;-67
2023/07/09 11:38:41;;;;;;;3.53;3.15;;;;;;;26.08;44.06;95255.19;5115136;28;20195;-68
2023/07/09 11:41:27;;;;;;;3.83;3.50;;;;;;;26.22;42.03;95250.31;5115822;28;20239;-67
2023/07/09 11:44:06;;;;;;;3.42;3.22;;;;;;;26.25;40.07;95255.88;5115037;28;20187;-67
2023/07/09 11:46:41;;;;;;;3.78;3.30;;;;;;;26.30;39.52;95254.53;5116001;28;20192;-67
2023/07/09 11:49:13;;;;;;;4.00;3.70;;;;;;;26.28;41.81;95248.53;5115852;28;20614;-68
2023/07/09 11:51:49;;;;;;;3.65;3.35;;;;;;;26.32;40.34;95243.56;5115297;28;20200;-68